Time;durP1;ratioP1;P1;durP2;ratioP2;P2;SDS_P1;SDS_P2;PMS_P1;PMS_P2;Temp;Humidity;BMP_temperature;BMP_pressure;BME280_temperature;BME280_humidity;BME280_pressure;Samples;Min_cycle;Max_cycle;Signal;HPM_P1;HPM_P2
2022/02/28 02:11:42;;;;;;;1.63;1.53;;;;;;;0.03;72.48;99401.31;5473322;23;20041;-83
2022/02/28 09:36:59;;;;;;;13.70;12.23;;;;;;;3.94;66.81;99792.84;5138336;23;20077;-96
2022/02/28 09:39:25;;;;;;;18.27;15.27;;;;;;;5.68;66.49;100059.44;5014026;28;20070;-96
2022/02/28 09:41:54;;;;;;;17.73;15.43;;;;;;;2.89;66.49;99625.00;5036372;23;20014;-96
2022/02/28 09:44:21;;;;;;;11.20;9.87;;;;;;;3.31;65.98;99659.72;4981264;28;20046;-96
2022/02/28 09:46:48;;;;;;;12.43;11.23;;;;;;;4.93;66.20;99925.53;4982113;28;20301;-96
2022/02/28 09:49:14;;;;;;;12.83;11.13;;;;;;;4.91;66.03;99881.16;4981879;28;20035;-96
2022/02/28 09:51:40;;;;;;;9.53;8.53;;;;;;;2.90;65.58;99586.69;4970817;28;20039;-96
2022/02/28 09:54:07;;;;;;;12.90;11.57;;;;;;;2.92;65.13;99579.56;4968282;28;20090;-96
2022/02/28 09:56:33;;;;;;;10.70;9.63;;;;;;;4.99;65.31;99851.72;4970987;28;20027;-96
2022/02/28 09:59:02;;;;;;;11.00;9.83;;;;;;;6.28;65.23;100043.69;4967017;28;20160;-96
2022/02/28 10:06:38;;;;;;;9.77;8.83;;;;;;;4.15;63.78;99699.56;5240308;23;20073;-96
2022/02/28 10:14:17;;;;;;;11.13;9.83;;;;;;;6.26;63.86;99954.69;5038005;28;20053;-96
2022/02/28 10:16:48;;;;;;;11.20;9.30;;;;;;;6.93;63.83;100032.44;5019699;28;20038;-96
2022/02/28 10:19:21;;;;;;;10.70;9.00;;;;;;;6.00;63.19;99909.88;5014634;28;20026;-96
2022/02/28 10:21:55;;;;;;;9.63;8.63;;;;;;;4.33;62.22;99648.28;4993701;28;20086;-96
2022/02/28 10:24:31;;;;;;;12.20;10.35;;;;;;;7.22;62.46;100028.88;5017942;28;20013;-96
2022/02/28 10:37:17;;;;;;;7.72;6.68;;;;;;;4.58;61.35;99617.38;5686559;23;20059;-96
2022/02/28 10:39:43;;;;;;;6.18;5.47;;;;;;;6.91;60.75;99978.44;5010659;28;20114;-96
2022/02/28 10:42:12;;;;;;;8.35;6.90;;;;;;;4.51;60.58;99601.41;5010282;28;20170;-96
2022/02/28 10:44:39;;;;;;;7.07;6.32;;;;;;;6.12;60.45;99831.06;5011200;28;20033;-96
2022/02/28 10:47:07;;;;;;;9.70;7.38;;;;;;;5.97;60.03;99802.69;5006095;28;20030;-96
2022/02/28 10:49:34;;;;;;;8.15;7.28;;;;;;;6.36;59.82;99855.84;4991188;28;20033;-96
2022/02/28 10:52:08;;;;;;;8.57;7.70;;;;;;;4.79;60.31;99620.66;5006766;28;20038;-96
2022/02/28 10:54:45;;;;;;;8.60;7.20;;;;;;;4.13;60.28;99592.56;5010294;28;20026;-96
2022/02/28 10:57:24;;;;;;;10.20;8.18;;;;;;;4.38;60.07;99640.88;5018355;28;20038;-96
2022/02/28 10:59:59;;;;;;;9.52;7.40;;;;;;;3.89;60.94;99613.00;5018946;28;20040;-96
2022/02/28 11:02:30;;;;;;;8.32;7.15;;;;;;;4.10;60.73;99608.50;5016031;28;20026;-96
2022/02/28 11:05:09;;;;;;;7.65;6.85;;;;;;;6.95;60.96;100035.75;5011135;28;20034;-96
2022/02/28 11:07:47;;;;;;;9.60;6.88;;;;;;;6.81;61.06;100032.75;4991695;28;20125;-96
2022/02/28 11:10:14;;;;;;;12.23;10.07;;;;;;;6.38;61.40;99969.28;4998236;28;20053;-96
2022/02/28 11:12:43;;;;;;;9.50;7.53;;;;;;;5.39;61.25;99830.72;5007859;28;20014;-96
2022/02/28 11:15:16;;;;;;;7.63;6.93;;;;;;;5.82;60.68;99847.78;5017011;28;20027;-96
2022/02/28 11:17:52;;;;;;;6.88;6.20;;;;;;;3.95;60.54;99601.19;5014722;28;20488;-96
2022/02/28 11:20:22;;;;;;;6.88;6.18;;;;;;;4.20;60.45;99660.78;5016703;28;20027;-96
2022/02/28 11:22:49;;;;;;;6.28;5.63;;;;;;;4.27;60.46;99646.22;5013724;28;20048;-96
2022/02/28 11:25:17;;;;;;;6.70;5.97;;;;;;;3.78;60.38;99550.44;5008856;28;20030;-95
2022/02/28 11:27:45;;;;;;;8.52;7.13;;;;;;;5.17;60.58;99737.53;5006200;28;20146;-96
2022/02/28 11:30:23;;;;;;;9.15;6.93;;;;;;;4.67;59.90;99609.53;4997480;28;20086;-96
2022/02/28 11:32:57;;;;;;;10.05;8.85;;;;;;;7.39;59.68;100050.91;5002164;28;20044;-96
2022/02/28 11:35:53;;;;;;;10.40;9.30;;;;;;;4.88;59.71;99632.91;4954257;29;20054;-96
2022/02/28 11:38:18;;;;;;;11.35;9.07;;;;;;;7.63;59.17;100046.00;4956424;29;20053;-96
2022/02/28 11:40:46;;;;;;;8.13;6.88;;;;;;;7.70;58.70;100051.50;4952854;29;20090;-96
2022/02/28 11:43:18;;;;;;;8.95;7.10;;;;;;;6.25;59.23;99850.75;4958648;29;20026;-96
2022/02/28 11:46:09;;;;;;;9.85;8.50;;;;;;;6.59;58.82;99879.09;4973813;29;20070;-96
2022/02/28 11:48:36;;;;;;;10.40;9.15;;;;;;;5.76;59.20;99783.66;4957064;29;20054;-96
2022/02/28 11:51:08;;;;;;;10.50;8.57;;;;;;;4.60;58.92;99628.53;4955716;29;20034;-96
2022/02/28 11:53:50;;;;;;;8.40;7.47;;;;;;;7.23;59.33;100048.91;4949497;29;20043;-96
2022/02/28 11:56:15;;;;;;;11.70;7.28;;;;;;;7.07;60.14;100056.56;4936523;29;20026;-96
2022/02/28 11:58:58;;;;;;;9.70;8.70;;;;;;;6.98;60.17;100076.63;4941163;29;20019;-96
2022/02/28 12:01:30;;;;;;;11.73;9.70;;;;;;;4.07;60.64;99655.81;4963389;29;20031;-96
2022/02/28 12:04:07;;;;;;;9.93;8.75;;;;;;;6.78;60.67;100062.72;4947109;29;20557;-96
2022/02/28 12:12:31;;;;;;;8.27;6.28;;;;;;;6.44;61.31;100064.94;5000689;28;20065;-96
2022/02/28 12:14:57;;;;;;;7.65;6.85;;;;;;;6.44;61.13;100064.13;5000304;28;20037;-96
2022/02/28 12:17:42;;;;;;;10.18;8.60;;;;;;;6.42;61.48;100072.13;4997414;28;20034;-96
2022/02/28 12:20:17;;;;;;;12.38;9.52;;;;;;;6.38;61.90;100068.94;4998019;28;20040;-96
2022/02/28 12:22:54;;;;;;;8.52;7.63;;;;;;;6.37;61.02;100079.56;4998871;28;20427;-96
2022/02/28 12:25:33;;;;;;;9.23;7.30;;;;;;;5.20;61.16;99922.28;4994442;28;20030;-92
2022/02/28 12:31:09;;;;;;;7.68;6.88;;;;;;;5.70;61.10;99984.16;5031503;23;20047;-96
2022/02/28 12:33:34;;;;;;;6.18;5.57;;;;;;;6.31;61.27;100082.75;4979821;28;20026;-94
2022/02/28 12:36:09;;;;;;;7.15;6.45;;;;;;;5.79;61.24;100003.47;4978443;28;20041;-95
2022/02/28 12:38:39;;;;;;;10.40;8.02;;;;;;;5.29;61.65;99924.97;4986755;28;20034;-94
2022/02/28 12:41:07;;;;;;;11.43;7.82;;;;;;;6.24;60.96;100074.59;4979702;28;20034;-93
2022/02/28 12:43:35;;;;;;;8.10;7.30;;;;;;;6.26;61.05;100091.03;4983340;28;20036;-93
2022/02/28 12:46:10;;;;;;;7.63;6.20;;;;;;;4.96;60.57;99880.78;4994896;28;20026;-94
2022/02/28 12:48:38;;;;;;;11.37;8.53;;;;;;;6.18;60.58;100088.25;4995354;28;20060;-92
2022/02/28 12:51:06;;;;;;;7.10;5.78;;;;;;;6.24;60.50;100089.50;5012416;28;20026;-92
2022/02/28 12:53:33;;;;;;;9.82;7.00;;;;;;;6.30;60.27;100088.97;4993896;28;20022;-96
2022/02/28 12:56:02;;;;;;;7.63;6.80;;;;;;;5.90;60.22;100028.75;4992753;28;20036;-96
2022/02/28 12:58:33;;;;;;;10.23;7.67;;;;;;;6.51;59.89;100088.81;4995463;28;20029;-95
2022/02/28 13:01:12;;;;;;;5.40;4.90;;;;;;;6.08;59.49;100031.56;4985557;28;20034;-96
2022/02/28 13:03:42;;;;;;;10.87;8.13;;;;;;;6.42;59.67;100059.00;4975957;28;20030;-96
2022/02/28 13:06:09;;;;;;;10.07;8.50;;;;;;;5.97;58.88;99998.44;4975702;28;20022;-95
2022/02/28 13:08:44;;;;;;;10.07;8.45;;;;;;;6.60;59.30;100091.44;4971806;28;20039;-95
2022/02/28 13:11:19;;;;;;;8.18;6.70;;;;;;;5.35;58.71;99879.91;4980180;28;20033;-95
2022/02/28 13:13:53;;;;;;;5.93;5.32;;;;;;;5.18;56.82;99861.38;4987904;28;20034;-96
2022/02/28 13:16:19;;;;;;;7.85;7.05;;;;;;;6.03;57.95;99990.84;4965515;28;20162;-95
2022/02/28 13:18:45;;;;;;;8.13;7.23;;;;;;;5.61;57.35;99895.91;4966616;28;20066;-95
2022/02/28 13:21:11;;;;;;;8.18;6.72;;;;;;;6.72;56.77;100067.72;4959825;28;20066;-95
2022/02/28 13:23:39;;;;;;;7.47;6.30;;;;;;;6.88;56.71;100104.69;4970461;28;20023;-96
2022/02/28 13:26:05;;;;;;;8.32;6.55;;;;;;;6.87;57.27;100087.28;4977958;28;20041;-96
2022/02/28 13:28:43;;;;;;;8.38;6.30;;;;;;;6.88;56.92;100096.81;4983196;28;20113;-96
2022/02/28 13:31:10;;;;;;;5.55;4.80;;;;;;;6.68;56.01;100073.22;4982127;28;20129;-96
2022/02/28 13:33:37;;;;;;;8.50;5.97;;;;;;;6.34;56.47;100023.00;4969572;28;20499;-96
2022/02/28 13:36:04;;;;;;;6.43;5.78;;;;;;;6.37;56.39;100027.13;4971621;28;20041;-96
2022/02/28 13:38:31;;;;;;;6.13;4.40;;;;;;;6.08;55.68;99958.97;4968783;28;20061;-96
2022/02/28 13:40:57;;;;;;;6.75;5.75;;;;;;;6.68;55.45;100040.88;4970006;28;20034;-96
2022/02/28 13:43:31;;;;;;;7.45;5.40;;;;;;;6.65;55.21;100041.16;4967890;28;20536;-96
2022/02/28 13:46:00;;;;;;;6.10;5.03;;;;;;;6.85;54.73;100047.25;4972464;28;20487;-95
2022/02/28 13:48:31;;;;;;;6.15;5.30;;;;;;;7.18;55.32;100087.91;4981307;28;20026;-96
2022/02/28 13:51:00;;;;;;;7.88;6.30;;;;;;;7.14;54.50;100058.47;4976936;28;20113;-96
2022/02/28 13:53:42;;;;;;;6.65;5.40;;;;;;;6.97;54.49;100046.94;4971409;28;20034;-95
2022/02/28 13:56:23;;;;;;;6.05;5.00;;;;;;;6.84;54.38;100063.97;4980163;28;20121;-95
2022/02/28 13:58:48;;;;;;;9.25;6.72;;;;;;;6.47;54.81;100059.41;4979701;28;20133;-95
2022/02/28 14:01:15;;;;;;;7.80;7.00;;;;;;;6.79;54.69;100095.88;4983597;28;20520;-96
2022/02/28 14:03:41;;;;;;;7.70;6.03;;;;;;;6.02;54.64;100001.47;4980130;28;20030;-95
2022/02/28 14:06:13;;;;;;;9.45;6.82;;;;;;;6.29;54.54;100071.56;4980338;28;20408;-95
2022/02/28 14:08:39;;;;;;;5.18;4.68;;;;;;;6.24;55.32;100066.75;4980563;28;20135;-95
2022/02/28 14:11:07;;;;;;;7.70;6.60;;;;;;;6.56;55.08;100141.72;4980340;28;20109;-95
2022/02/28 14:13:35;;;;;;;7.07;5.55;;;;;;;5.45;55.51;99971.56;4976790;28;20035;-95
2022/02/28 14:16:35;;;;;;;8.48;6.07;;;;;;;6.26;54.51;100119.03;4980985;28;20025;-94
2022/02/28 14:19:19;;;;;;;9.63;5.68;;;;;;;6.22;55.83;100121.13;5001061;28;20026;-94
2022/02/28 14:21:50;;;;;;;12.35;6.97;;;;;;;6.22;55.89;100123.72;5000802;28;20039;-95
2022/02/28 14:24:18;;;;;;;8.30;5.30;;;;;;;5.97;55.95;100092.78;5000675;28;20043;-95
2022/02/28 14:26:46;;;;;;;10.85;6.22;;;;;;;6.17;55.82;100107.59;4987783;28;20091;-94
2022/02/28 14:29:16;;;;;;;12.57;7.30;;;;;;;6.00;55.75;100118.72;4964826;28;20062;-94
2022/02/28 14:31:57;;;;;;;10.68;7.03;;;;;;;5.83;55.73;100080.00;4979357;28;20041;-95
2022/02/28 14:34:23;;;;;;;11.52;7.45;;;;;;;5.99;55.60;100111.84;4980070;28;20038;-95
2022/02/28 14:36:49;;;;;;;13.27;7.82;;;;;;;6.16;55.85;100142.63;4979026;28;20034;-94
2022/02/28 14:39:17;;;;;;;6.60;5.90;;;;;;;4.96;55.82;99949.63;4979087;28;20037;-95
2022/02/28 14:41:44;;;;;;;7.38;6.38;;;;;;;4.63;56.40;99927.19;4979462;28;20108;-95
2022/02/28 14:44:11;;;;;;;8.33;5.70;;;;;;;5.11;55.93;100012.91;4997464;28;20033;-95
2022/02/28 14:46:38;;;;;;;6.85;5.82;;;;;;;4.85;56.57;100002.03;5003618;28;20037;-94
2022/02/28 14:49:07;;;;;;;10.95;7.35;;;;;;;5.91;56.76;100141.31;5004171;28;20021;-95
2022/02/28 14:51:37;;;;;;;8.13;6.50;;;;;;;6.07;56.72;100159.16;5003929;28;20010;-93
2022/02/28 14:54:04;;;;;;;8.27;7.35;;;;;;;5.64;56.50;100139.25;5003874;28;20415;-93
2022/02/28 14:56:30;;;;;;;7.30;6.28;;;;;;;6.01;56.32;100168.41;4997010;28;20061;-93
2022/02/28 14:58:55;;;;;;;5.80;5.20;;;;;;;5.59;56.07;100140.59;4988211;28;20491;-92
2022/02/28 15:01:21;;;;;;;7.33;5.60;;;;;;;5.72;56.33;100189.19;4983883;28;20073;-92
2022/02/28 15:03:47;;;;;;;6.40;5.57;;;;;;;5.78;56.48;100176.53;4979027;28;20140;-95
2022/02/28 15:06:13;;;;;;;6.23;5.60;;;;;;;5.02;56.67;100064.25;4987111;28;20030;-94
2022/02/28 15:08:38;;;;;;;7.20;5.97;;;;;;;5.72;56.61;100178.72;4979236;28;20033;-94
2022/02/28 15:11:06;;;;;;;8.67;6.90;;;;;;;5.27;56.57;100157.25;4979166;28;20069;-92
2022/02/28 15:13:34;;;;;;;8.77;7.60;;;;;;;4.82;56.32;100091.25;4978896;28;20060;-93
2022/02/28 15:15:59;;;;;;;10.13;8.50;;;;;;;5.03;56.65;100113.00;4979627;28;20031;-92
2022/02/28 15:18:25;;;;;;;7.40;6.70;;;;;;;4.72;56.64;100066.81;4979483;28;20026;-92
2022/02/28 15:20:50;;;;;;;10.03;7.63;;;;;;;5.11;56.64;100141.16;4979215;28;20073;-91
2022/02/28 15:23:16;;;;;;;10.33;8.27;;;;;;;5.46;56.38;100182.72;4979664;28;20026;-92
2022/02/28 15:25:42;;;;;;;11.60;8.40;;;;;;;3.72;56.88;99945.28;4985370;28;20031;-92
2022/02/28 15:28:08;;;;;;;11.07;9.60;;;;;;;4.04;57.18;99979.22;4985556;28;20022;-92
2022/02/28 15:33:17;;;;;;;10.13;8.13;;;;;;;5.23;57.57;100212.63;5046509;23;20054;-91
2022/02/28 15:35:43;;;;;;;8.80;7.93;;;;;;;5.25;57.56;100234.28;5011141;28;20040;-92
2022/02/28 15:38:21;;;;;;;11.03;8.67;;;;;;;3.19;57.33;99925.09;5003723;28;20030;-92
2022/02/28 15:40:47;;;;;;;10.40;8.70;;;;;;;5.20;57.68;100244.25;5008118;28;20054;-93
2022/02/28 15:46:00;;;;;;;11.20;10.00;;;;;;;3.66;57.61;100029.28;5099303;23;20058;-91
2022/02/28 16:02:03;;;;;;;12.00;10.00;;;;;;;3.63;58.28;100014.69;5264429;23;20077;-92
2022/02/28 16:09:46;;;;;;;9.03;8.10;;;;;;;3.53;57.80;100068.59;5511196;23;20042;-92
2022/02/28 16:14:53;;;;;;;7.20;6.43;;;;;;;3.29;57.93;100016.53;5694135;23;20046;-92
2022/02/28 16:30:34;;;;;;;14.87;11.03;;;;;;;2.74;57.81;99952.16;5374228;23;20103;-91
2022/02/28 18:54:29;;;;;;;9.17;8.10;;;;;;;1.55;56.90;99993.09;5793310;23;20053;-87
